createdAt,value
2019-05-30T00:01:54.281Z,98340.02
2019-05-30T00:06:58.630Z,98340.02
2019-05-30T00:12:03.056Z,98340.77
2019-05-30T00:17:06.484Z,98347.09
2019-05-30T00:22:09.948Z,98349.36
2019-05-30T00:27:13.327Z,98344.99
2019-05-30T00:32:16.867Z,98347.47
2019-05-30T00:37:20.298Z,98351.81
2019-05-30T00:42:23.673Z,98352.85
2019-05-30T00:47:27.007Z,98351.12
2019-05-30T00:52:30.394Z,98350.48
2019-05-30T00:57:33.717Z,98361.95
2019-05-30T01:02:37.118Z,98355.71
2019-05-30T01:07:40.500Z,98359.26
2019-05-30T01:12:43.841Z,98358.41
2019-05-30T01:17:47.208Z,98349.03
2019-05-30T01:22:50.589Z,98353.44
2019-05-30T01:27:53.974Z,98356.12
2019-05-30T01:32:57.693Z,98361.56
2019-05-30T01:38:01.881Z,98363.45
2019-05-30T01:43:06.176Z,98361.34
2019-05-30T01:48:09.602Z,98365.70
2019-05-30T01:53:13.048Z,98365.95
2019-05-30T01:58:16.434Z,98361.84
2019-05-30T02:03:22.290Z,98365.67
2019-05-30T02:08:25.703Z,98367.06
2019-05-30T02:13:29.160Z,98374.30
2019-05-30T02:18:32.572Z,98375.22
2019-05-30T02:23:35.984Z,98370.19
2019-05-30T02:28:39.462Z,98372.55
2019-05-30T02:33:42.835Z,98385.74
2019-05-30T02:38:46.156Z,98387.53
2019-05-30T02:43:49.549Z,98390.72
2019-05-30T02:48:58.668Z,98404.55
2019-05-30T02:53:58.052Z,98404.89
2019-05-30T02:59:03.929Z,98409.52
2019-05-30T03:04:08.723Z,98418.06
2019-05-30T03:09:13.221Z,98412.20
2019-05-30T03:14:19.858Z,98420.72
2019-05-30T03:19:21.905Z,98415.16
2019-05-30T03:24:25.255Z,98419.11
2019-05-30T03:29:28.626Z,98422.70
2019-05-30T03:34:32.038Z,98420.61
2019-05-30T03:39:35.465Z,98425.89
2019-05-30T03:44:38.877Z,98428.94
2019-05-30T03:49:44.048Z,98431.87
2019-05-30T03:54:47.913Z,98434.98
2019-05-30T04:00:00.432Z,98439.37
2019-05-30T04:05:14.169Z,98439.13
2019-05-30T04:10:21.231Z,98441.33
2019-05-30T04:15:35.184Z,98444.59
2019-05-30T04:20:38.600Z,98449.98
2019-05-30T04:25:42.065Z,98454.91
2019-05-30T04:30:45.403Z,98458.12
2019-05-30T04:35:48.758Z,98459.72
2019-05-30T04:40:52.107Z,98466.52
2019-05-30T04:45:55.463Z,98479.78
2019-05-30T04:50:58.813Z,98474.16
2019-05-30T04:56:02.157Z,98483.07
2019-05-30T05:01:05.481Z,98483.70
2019-05-30T05:06:08.886Z,98480.73
2019-05-30T05:11:16.032Z,98486.32
2019-05-30T05:16:27.715Z,98485.93
2019-05-30T05:21:23.097Z,98486.73
2019-05-30T05:26:26.575Z,98488.45
2019-05-30T05:31:29.897Z,98483.08
2019-05-30T05:36:33.253Z,98476.22
2019-05-30T05:41:36.642Z,98482.11
2019-05-30T05:46:39.983Z,98485.15
2019-05-30T05:51:43.398Z,98490.41
2019-05-30T05:56:46.726Z,98488.38
2019-05-30T06:01:50.148Z,98491.02
2019-05-30T06:06:53.485Z,98495.05
2019-05-30T06:11:56.820Z,98492.24
2019-05-30T06:17:00.251Z,98492.58
2019-05-30T06:22:03.684Z,98496.66
2019-05-30T06:27:07.026Z,98499.37
2019-05-30T06:32:10.414Z,98497.42
2019-05-30T06:37:13.811Z,98491.79
2019-05-30T06:42:17.155Z,98500.84
2019-05-30T06:47:20.513Z,98509.38
2019-05-30T06:52:24.949Z,98512.17
2019-05-30T06:57:29.321Z,98507.22
2019-05-30T07:02:32.890Z,98500.40
2019-05-30T07:07:36.417Z,98507.16
2019-05-30T07:12:39.916Z,98501.51
2019-05-30T07:17:43.344Z,98504.06
2019-05-30T07:22:46.677Z,98505.20
2019-05-30T07:27:50.147Z,98502.51
2019-05-30T07:32:53.578Z,98508.27
2019-05-30T07:37:56.916Z,98514.16
2019-05-30T07:43:00.254Z,98521.17
2019-05-30T07:48:03.584Z,98512.62
2019-05-30T07:53:07.060Z,98512.55
2019-05-30T07:58:10.408Z,98512.56
2019-05-30T08:03:13.820Z,98518.30
2019-05-30T08:08:17.355Z,98514.91
2019-05-30T08:13:20.703Z,98508.66
2019-05-30T08:18:24.144Z,98508.12
2019-05-30T08:23:28.045Z,98506.03
2019-05-30T08:28:32.212Z,98500.03
2019-05-30T08:33:35.706Z,98494.67
2019-05-30T08:38:39.377Z,98485.64
2019-05-30T08:43:42.792Z,98487.09
2019-05-30T08:48:46.236Z,98483.45
2019-05-30T08:53:49.667Z,98488.49
2019-05-30T08:58:53.015Z,98487.45
2019-05-30T09:03:56.453Z,98482.64
2019-05-30T09:08:59.888Z,98482.44
2019-05-30T09:14:04.100Z,98486.62
2019-05-30T09:19:07.482Z,98478.58
2019-05-30T09:24:11.068Z,98480.66
2019-05-30T09:29:14.441Z,98478.95
2019-05-30T09:34:17.777Z,98471.15
2019-05-30T09:39:21.146Z,98471.14
2019-05-30T09:44:24.490Z,98463.08
2019-05-30T09:49:27.971Z,98457.34
2019-05-30T09:54:31.277Z,98471.00
2019-05-30T09:59:34.690Z,98468.21
2019-05-30T10:04:38.047Z,98463.11
2019-05-30T10:09:42.789Z,98462.77
2019-05-30T10:14:46.962Z,98454.98
2019-05-30T10:19:50.981Z,98456.66
2019-05-30T10:24:54.347Z,98450.12
2019-05-30T10:29:57.694Z,98448.53
2019-05-30T10:35:01.025Z,98443.85
2019-05-30T10:40:08.316Z,98436.37
2019-05-30T10:45:12.534Z,98436.50
2019-05-30T10:50:16.447Z,98430.92
2019-05-30T10:55:21.518Z,98420.77
2019-05-30T11:00:28.038Z,98421.95
2019-05-30T11:05:31.442Z,98422.95
2019-05-30T11:10:37.384Z,98417.71
2019-05-30T11:15:40.928Z,98407.07
2019-05-30T11:20:44.273Z,98407.58
2019-05-30T11:25:48.568Z,98402.03
2019-05-30T11:30:52.745Z,98397.03
2019-05-30T11:35:57.033Z,98397.27
2019-05-30T11:41:00.724Z,98387.03
2019-05-30T11:46:04.155Z,98390.17
2019-05-30T11:51:07.579Z,98371.81
2019-05-30T11:56:11.011Z,98365.47
2019-05-30T12:01:14.522Z,98365.08
2019-05-30T12:06:17.923Z,98359.66
2019-05-30T12:11:21.270Z,98355.23
2019-05-30T12:16:24.674Z,98351.97
2019-05-30T12:21:29.873Z,98353.38
2019-05-30T12:26:34.063Z,98354.02
2019-05-30T12:31:37.679Z,98346.80
2019-05-30T12:36:41.059Z,98343.64
2019-05-30T12:41:44.398Z,98337.88
2019-05-30T12:46:47.751Z,98334.88
2019-05-30T12:51:51.274Z,98337.98
2019-05-30T12:56:54.664Z,98334.17
2019-05-30T13:01:58.951Z,98329.21
2019-05-30T13:07:03.376Z,98334.72
2019-05-30T13:12:07.017Z,98330.88
2019-05-30T13:17:10.518Z,98320.14
2019-05-30T13:22:13.931Z,98315.66
2019-05-30T13:27:17.763Z,98329.70
2019-05-30T13:32:21.073Z,98315.13
2019-05-30T13:37:24.532Z,98311.48
2019-05-30T13:42:27.876Z,98308.42
2019-05-30T13:47:31.361Z,98304.66
2019-05-30T13:52:34.715Z,98303.28
2019-05-30T13:57:38.066Z,98311.12
2019-05-30T14:02:41.552Z,98305.80
2019-05-30T14:07:44.913Z,98314.28
2019-05-30T14:12:48.391Z,98302.86
2019-05-30T14:17:51.715Z,98312.73
2019-05-30T14:22:55.157Z,98311.78
2019-05-30T14:27:58.829Z,98306.66
2019-05-30T14:33:02.187Z,98300.98
2019-05-30T14:38:06.643Z,98293.66
2019-05-30T14:43:11.410Z,98290.56
2019-05-30T14:48:14.932Z,98291.21
2019-05-30T14:53:18.254Z,98292.17
2019-05-30T14:58:21.619Z,98295.31
2019-05-30T15:03:24.999Z,98288.63
2019-05-30T15:08:28.413Z,98289.28
2019-05-30T15:13:31.777Z,98289.28
2019-05-30T15:18:35.157Z,98281.06
2019-05-30T15:23:38.493Z,98279.87
2019-05-30T15:28:42.911Z,98279.15
2019-05-30T15:33:46.341Z,98273.09
2019-05-30T15:38:49.679Z,98277.38
2019-05-30T15:43:53.022Z,98278.35
2019-05-30T15:48:56.425Z,98273.34
2019-05-30T15:53:59.772Z,98271.22
2019-05-30T15:59:03.247Z,98273.47
2019-05-30T16:04:06.647Z,98268.95
2019-05-30T16:09:10.633Z,98270.61
2019-05-30T16:14:15.223Z,98279.09
2019-05-30T16:19:24.375Z,98270.83
2019-05-30T16:24:24.766Z,98265.73
2019-05-30T16:29:28.171Z,98263.48
2019-05-30T16:34:32.839Z,98265.50
2019-05-30T16:39:36.344Z,98260.06
2019-05-30T16:44:39.735Z,98258.22
2019-05-30T16:49:43.097Z,98263.55
2019-05-30T16:54:46.426Z,98258.81
2019-05-30T16:59:50.798Z,98263.20
2019-05-30T17:04:54.173Z,98264.61
2019-05-30T17:09:58.601Z,98259.98
2019-05-30T17:15:02.212Z,98267.49
2019-05-30T17:20:09.159Z,98265.08
2019-05-30T17:25:12.768Z,98266.36
2019-05-30T17:30:17.500Z,98274.64
2019-05-30T17:35:21.974Z,98276.67
2019-05-30T17:40:41.214Z,98274.42
2019-05-30T17:45:30.630Z,98276.91
2019-05-30T17:50:34.043Z,98287.75
2019-05-30T17:55:38.656Z,98286.89
2019-05-30T18:00:42.014Z,98287.95
2019-05-30T18:05:45.430Z,98296.64
2019-05-30T18:10:53.886Z,98293.20
2019-05-30T18:15:53.905Z,98293.59
2019-05-30T18:20:57.247Z,98298.94
2019-05-30T18:26:00.632Z,98303.41
2019-05-30T18:31:03.978Z,98311.00
2019-05-30T18:36:07.317Z,98310.41
2019-05-30T18:41:13.009Z,98304.16
2019-05-30T18:46:15.848Z,98309.58
2019-05-30T18:51:19.214Z,98312.09
2019-05-30T18:56:22.559Z,98307.73
2019-05-30T19:01:27.287Z,98312.19
2019-05-30T19:06:31.925Z,98315.55
2019-05-30T19:11:36.981Z,98321.45
2019-05-30T19:16:40.411Z,98323.08
2019-05-30T19:21:43.854Z,98333.88
2019-05-30T19:26:47.311Z,98336.83
2019-05-30T19:31:50.756Z,98352.03
2019-05-30T19:41:57.650Z,98370.45
2019-05-30T19:47:01.293Z,98368.08
2019-05-30T19:52:04.736Z,98372.24
2019-05-30T19:57:08.096Z,98377.44
2019-05-30T20:02:11.454Z,98381.34
2019-05-30T20:07:15.004Z,98377.60
2019-05-30T20:12:18.415Z,98386.93
2019-05-30T20:17:21.890Z,98390.66
2019-05-30T20:22:25.294Z,98399.60
2019-05-30T20:27:28.939Z,98400.72
2019-05-30T20:32:32.282Z,98402.17
2019-05-30T20:37:36.763Z,98400.58
2019-05-30T20:42:41.072Z,98407.67
2019-05-30T20:47:44.620Z,98413.63
2019-05-30T20:52:48.050Z,98416.50
2019-05-30T20:57:51.494Z,98418.67
2019-05-30T21:02:55.065Z,98421.72
2019-05-30T21:07:58.830Z,98416.98
2019-05-30T21:13:04.101Z,98424.64
2019-05-30T21:18:07.920Z,98422.25
2019-05-30T21:23:11.367Z,98430.16
2019-05-30T21:28:15.752Z,98426.00
2019-05-30T21:33:19.203Z,98428.43
2019-05-30T21:38:22.618Z,98431.70
2019-05-30T21:43:28.010Z,98434.16
2019-05-30T21:48:31.331Z,98437.73
2019-05-30T21:53:34.770Z,98434.47
2019-05-30T21:58:39.984Z,98436.20
2019-05-30T22:03:44.894Z,98439.17
2019-05-30T22:08:49.310Z,98438.48
2019-05-30T22:13:53.127Z,98439.31
2019-05-30T22:18:56.491Z,98433.27
2019-05-30T22:23:59.886Z,98434.52
2019-05-30T22:29:04.768Z,98433.90
2019-05-30T22:34:08.141Z,98431.08
2019-05-30T22:39:11.559Z,98433.83
2019-05-30T22:44:15.037Z,98425.19
2019-05-30T22:49:18.393Z,98420.00
2019-05-30T22:54:22.995Z,98418.05
2019-05-30T22:59:26.438Z,98419.72
2019-05-30T23:04:29.788Z,98412.94
2019-05-30T23:09:33.364Z,98417.55
2019-05-30T23:14:36.942Z,98416.11
2019-05-30T23:19:40.318Z,98423.37
2019-05-30T23:24:43.790Z,98417.05
2019-05-30T23:29:47.683Z,98420.23
2019-05-30T23:34:52.173Z,98417.44
2019-05-30T23:39:56.810Z,98418.44
2019-05-30T23:45:00.404Z,98413.78
2019-05-30T23:50:07.424Z,98407.61
2019-05-30T23:55:10.965Z,98407.61
